Time;durP1;ratioP1;P1;durP2;ratioP2;P2;SDS_P1;SDS_P2;PMS_P1;PMS_P2;Temp;Humidity;BMP_temperature;BMP_pressure;BME280_temperature;BME280_humidity;BME280_pressure;Samples;Min_cycle;Max_cycle;Signal;HPM_P1;HPM_P2
2023/09/21 00:03:54;;;;;;;772.78;725.05;;;;;;;19.34;100.00;99712.88;10482120;28;20127;-67
2023/09/21 00:08:55;;;;;;;800.33;748.42;;;;;;;19.44;100.00;99704.56;10497512;28;20111;-66
2023/09/21 00:13:55;;;;;;;741.35;696.67;;;;;;;19.58;100.00;99716.53;10498540;28;20190;-67
2023/09/21 00:18:57;;;;;;;744.92;699.97;;;;;;;19.59;100.00;99706.38;10497650;28;20056;-67
2023/09/21 00:24:00;;;;;;;736.40;692.47;;;;;;;19.72;100.00;99701.09;10498069;28;20048;-67
2023/09/21 00:29:03;;;;;;;735.33;691.50;;;;;;;19.74;100.00;99698.03;10481328;28;20036;-67
2023/09/21 00:34:05;;;;;;;728.38;685.47;;;;;;;19.86;100.00;99706.72;10499127;28;20414;-67
2023/09/21 00:39:09;;;;;;;767.28;718.40;;;;;;;19.89;100.00;99688.84;10497836;28;20094;-67
2023/09/21 00:44:09;;;;;;;901.35;824.60;;;;;;;19.90;100.00;99685.00;10497098;28;20043;-67
2023/09/21 00:49:10;;;;;;;720.10;677.83;;;;;;;19.98;100.00;99682.44;10495349;28;20058;-67
2023/09/21 00:54:11;;;;;;;789.60;738.97;;;;;;;20.05;100.00;99678.53;10478956;28;20090;-67
2023/09/21 00:59:15;;;;;;;755.83;709.80;;;;;;;20.16;100.00;99672.63;10478968;28;20029;-66
2023/09/21 01:04:15;;;;;;;757.25;710.85;;;;;;;20.26;100.00;99670.88;10495073;28;20086;-67
2023/09/21 01:09:17;;;;;;;685.53;646.80;;;;;;;20.30;100.00;99672.78;10496436;28;20036;-67
2023/09/21 01:14:17;;;;;;;827.58;771.67;;;;;;;20.31;100.00;99657.91;10496294;28;20040;-67
2023/09/21 01:19:18;;;;;;;697.40;657.78;;;;;;;20.31;100.00;99666.16;10496294;28;20064;-67
2023/09/21 01:24:22;;;;;;;730.42;686.85;;;;;;;20.26;100.00;99663.47;10495707;28;20365;-67
2023/09/21 01:29:22;;;;;;;707.75;666.90;;;;;;;20.28;100.00;99654.94;10495560;28;20448;-66
2023/09/21 01:34:23;;;;;;;684.13;645.38;;;;;;;20.38;100.00;99650.13;10494996;28;20041;-67
2023/09/21 01:39:23;;;;;;;791.85;741.38;;;;;;;20.33;100.00;99649.38;10495268;28;20037;-67
2023/09/21 01:44:23;;;;;;;744.45;699.20;;;;;;;20.36;100.00;99654.28;10494800;28;20051;-66
2023/09/21 01:49:24;;;;;;;742.78;697.85;;;;;;;19.98;100.00;99662.41;10496319;28;20037;-67
2023/09/21 01:54:27;;;;;;;748.90;703.63;;;;;;;19.18;100.00;99673.75;10495398;28;20060;-66
2023/09/21 01:59:27;;;;;;;734.83;690.60;;;;;;;18.76;100.00;99680.53;10495337;28;20058;-66
2023/09/21 02:04:28;;;;;;;734.30;690.38;;;;;;;18.46;100.00;99678.72;10495257;28;20372;-66
2023/09/21 02:09:28;;;;;;;712.85;671.05;;;;;;;18.25;100.00;99680.69;10495799;28;20048;-66
2023/09/21 02:14:28;;;;;;;733.55;689.90;;;;;;;18.10;100.00;99668.69;10493815;28;20090;-65
2023/09/21 02:19:34;;;;;;;723.92;679.83;;;;;;;18.00;100.00;99671.44;10476948;28;20469;-65
2023/09/21 02:24:36;;;;;;;738.13;693.57;;;;;;;17.79;100.00;99665.16;10494260;28;20468;-66
2023/09/21 02:29:40;;;;;;;768.90;721.33;;;;;;;17.65;100.00;99659.41;10485125;28;20032;-66
2023/09/21 02:34:40;;;;;;;759.38;712.97;;;;;;;17.54;100.00;99646.81;10503635;28;20038;-66
2023/09/21 02:39:43;;;;;;;767.80;719.83;;;;;;;17.43;100.00;99623.28;10487925;28;20032;-66
2023/09/21 02:44:45;;;;;;;844.83;788.45;;;;;;;17.41;100.00;99609.03;10503442;28;20457;-66
2023/09/21 02:49:46;;;;;;;832.03;778.17;;;;;;;17.37;100.00;99608.78;10486087;28;20044;-66
2023/09/21 02:54:46;;;;;;;807.38;755.10;;;;;;;17.32;100.00;99616.97;10502426;28;20077;-67
2023/09/21 02:59:47;;;;;;;821.08;768.05;;;;;;;17.29;100.00;99617.50;10503006;28;20119;-67
2023/09/21 03:04:52;;;;;;;761.92;705.28;;;;;;;17.29;100.00;99633.94;10501283;28;20036;-67
2023/09/21 03:09:54;;;;;;;845.38;790.63;;;;;;;17.18;100.00;99637.78;10501763;28;20032;-67
2023/09/21 03:14:56;;;;;;;994.45;921.10;;;;;;;17.05;100.00;99628.19;10501471;28;20032;-68
2023/09/21 03:19:57;;;;;;;921.55;857.58;;;;;;;16.93;100.00;99619.41;10500894;28;20067;-68
2023/09/21 03:24:59;;;;;;;892.38;830.83;;;;;;;16.92;100.00;99602.19;10500121;28;20059;-68
2023/09/21 03:29:59;;;;;;;815.63;763.13;;;;;;;16.92;100.00;99617.78;10465988;28;20048;-68
2023/09/21 03:34:59;;;;;;;824.53;771.10;;;;;;;16.92;100.00;99613.13;10500162;28;20048;-68
2023/09/21 03:40:00;;;;;;;959.63;889.95;;;;;;;16.91;100.00;99616.09;10497960;28;20025;-68
2023/09/21 03:45:00;;;;;;;937.85;871.33;;;;;;;16.92;100.00;99609.56;10499662;28;20024;-68
2023/09/21 03:50:06;;;;;;;924.85;860.47;;;;;;;16.93;100.00;99598.34;10500092;28;20479;-68
2023/09/21 03:55:09;;;;;;;915.07;852.03;;;;;;;16.93;100.00;99603.81;10498910;28;20028;-69
2023/09/21 04:00:25;;;;;;;853.35;792.47;;;;;;;16.96;100.00;99600.53;10482693;28;20024;-69
2023/09/21 04:05:27;;;;;;;969.47;899.67;;;;;;;16.92;100.00;99593.97;10498215;28;20032;-69
2023/09/21 04:10:27;;;;;;;830.47;776.17;;;;;;;16.89;100.00;99589.06;10499052;28;20035;-69
2023/09/21 04:15:28;;;;;;;891.90;830.50;;;;;;;16.93;100.00;99575.66;10497710;28;20037;-68
2023/09/21 04:20:34;;;;;;;896.95;833.40;;;;;;;16.91;100.00;99586.03;10496378;28;20056;-69
2023/09/21 04:25:36;;;;;;;955.13;887.77;;;;;;;16.90;100.00;99581.66;10499412;28;20380;-68
2023/09/21 04:30:37;;;;;;;923.25;859.38;;;;;;;16.84;100.00;99589.03;10481266;28;20281;-69
2023/09/21 04:35:37;;;;;;;933.92;868.83;;;;;;;16.80;100.00;99581.66;10499573;28;20387;-70
2023/09/21 04:40:38;;;;;;;908.40;846.08;;;;;;;16.79;100.00;99578.09;10484500;28;20036;-70
2023/09/21 04:45:38;;;;;;;826.05;772.33;;;;;;;16.76;100.00;99588.75;10497730;28;20392;-68
2023/09/21 04:50:42;;;;;;;892.03;832.05;;;;;;;16.74;100.00;99587.06;10495090;28;20043;-70
2023/09/21 04:55:42;;;;;;;882.50;821.10;;;;;;;16.71;100.00;99584.88;10495087;28;20028;-70
2023/09/21 05:00:42;;;;;;;894.75;834.63;;;;;;;16.69;100.00;99591.72;10478051;28;20032;-70
2023/09/21 05:05:43;;;;;;;889.42;829.58;;;;;;;16.68;100.00;99618.22;10496037;28;20037;-69
2023/09/21 05:10:43;;;;;;;890.45;830.80;;;;;;;16.73;100.00;99639.28;10495229;28;20086;-69
2023/09/21 05:15:45;;;;;;;928.97;865.60;;;;;;;16.06;100.00;99643.66;10477723;28;20068;-71
2023/09/21 05:20:46;;;;;;;948.63;883.22;;;;;;;15.13;100.00;99637.72;10497670;28;20053;-70
2023/09/21 05:25:46;;;;;;;1129.57;999.90;;;;;;;14.76;100.00;99652.06;10497258;28;20040;-70
2023/09/21 05:30:46;;;;;;;890.80;831.28;;;;;;;14.71;100.00;99652.00;10497063;28;20119;-70
2023/09/21 05:35:53;;;;;;;832.83;778.80;;;;;;;14.62;100.00;99657.09;10495763;28;20166;-71
2023/09/21 05:40:53;;;;;;;830.90;777.33;;;;;;;14.52;100.00;99646.09;10459992;28;20143;-70
2023/09/21 05:45:54;;;;;;;763.72;715.70;;;;;;;14.55;100.00;99662.75;10493017;28;20476;-70
2023/09/21 05:50:54;;;;;;;770.78;722.60;;;;;;;14.59;100.00;99669.31;10495294;28;20458;-70
2023/09/21 05:55:55;;;;;;;772.03;723.90;;;;;;;14.55;100.00;99643.66;10494954;28;20357;-70
2023/09/21 06:00:55;;;;;;;772.95;724.42;;;;;;;14.68;100.00;99674.31;10499118;28;20036;-71
2023/09/21 06:05:56;;;;;;;776.63;727.50;;;;;;;14.74;100.00;99663.22;10503114;28;20463;-70
2023/09/21 06:10:56;;;;;;;801.42;750.28;;;;;;;14.75;100.00;99664.06;10501965;28;20436;-70
2023/09/21 06:15:57;;;;;;;817.20;764.65;;;;;;;14.73;100.00;99661.56;10503023;28;20039;-71
2023/09/21 06:20:58;;;;;;;815.63;762.78;;;;;;;14.72;100.00;99667.28;10484651;28;20398;-71
2023/09/21 06:25:59;;;;;;;847.38;792.00;;;;;;;14.75;100.00;99655.88;10502190;28;20036;-70
2023/09/21 06:31:04;;;;;;;835.58;781.40;;;;;;;14.82;100.00;99656.50;10483783;28;20036;-70
2023/09/21 06:36:05;;;;;;;829.63;775.30;;;;;;;14.85;100.00;99667.69;10501185;28;20178;-69
2023/09/21 06:41:07;;;;;;;854.00;797.80;;;;;;;14.94;100.00;99686.34;10500844;28;20067;-70
2023/09/21 06:46:11;;;;;;;873.35;815.50;;;;;;;15.00;100.00;99696.22;10500367;28;20040;-71
2023/09/21 06:51:11;;;;;;;871.35;813.40;;;;;;;15.04;100.00;99698.16;10466326;28;20081;-69
2023/09/21 06:56:12;;;;;;;866.80;809.25;;;;;;;15.06;100.00;99698.75;10499653;28;20488;-70
2023/09/21 07:01:12;;;;;;;896.50;836.67;;;;;;;15.07;100.00;99694.94;10499680;28;20448;-71
2023/09/21 07:06:13;;;;;;;896.97;836.83;;;;;;;14.99;100.00;99689.94;10500325;28;20032;-71
2023/09/21 07:11:19;;;;;;;909.67;848.55;;;;;;;14.91;100.00;99682.22;10499735;28;20067;-69
2023/09/21 07:16:20;;;;;;;887.83;828.63;;;;;;;14.90;100.00;99694.22;10501497;28;20047;-70
2023/09/21 07:21:20;;;;;;;890.25;830.75;;;;;;;14.96;100.00;99712.25;10500378;28;20124;-70
2023/09/21 07:26:21;;;;;;;895.72;835.15;;;;;;;15.05;100.00;99713.44;10500045;28;20112;-69
2023/09/21 07:31:22;;;;;;;889.05;828.33;;;;;;;15.06;100.00;99703.34;10500783;28;20086;-70
2023/09/21 07:36:22;;;;;;;904.20;843.53;;;;;;;15.19;100.00;99699.41;10499348;28;20541;-70
2023/09/21 07:41:23;;;;;;;910.17;848.88;;;;;;;15.28;100.00;99693.25;10481242;28;20055;-70
2023/09/21 07:46:23;;;;;;;916.92;854.83;;;;;;;15.35;100.00;99693.84;10500545;28;20043;-70
2023/09/21 07:51:26;;;;;;;911.17;849.55;;;;;;;15.41;100.00;99702.91;10499505;28;20057;-70
2023/09/21 07:56:27;;;;;;;915.63;853.85;;;;;;;15.53;100.00;99713.63;10498934;28;20072;-72
2023/09/21 08:01:28;;;;;;;921.25;858.72;;;;;;;15.58;100.00;99727.34;10480158;28;20116;-70
2023/09/21 08:06:28;;;;;;;925.22;862.42;;;;;;;15.61;100.00;99737.75;10499490;28;20036;-70
2023/09/21 08:11:29;;;;;;;936.72;873.50;;;;;;;15.50;100.00;99741.44;10480127;28;20040;-70
2023/09/21 08:16:30;;;;;;;893.35;833.33;;;;;;;15.55;100.00;99741.50;10498676;28;20399;-70
2023/09/21 08:21:31;;;;;;;902.80;842.17;;;;;;;15.54;100.00;99731.69;10478794;28;20139;-70
2023/09/21 08:26:32;;;;;;;888.20;828.85;;;;;;;15.50;100.00;99734.06;10495810;28;20036;-70
2023/09/21 08:31:33;;;;;;;879.60;820.92;;;;;;;15.53;100.00;99749.13;10497326;28;20043;-70
2023/09/21 08:36:33;;;;;;;878.38;820.00;;;;;;;15.57;100.00;99739.31;10497004;28;20124;-70
2023/09/21 08:41:35;;;;;;;881.75;822.55;;;;;;;15.61;100.00;99737.75;10478455;28;20028;-70
2023/09/21 08:46:38;;;;;;;878.83;819.95;;;;;;;15.64;100.00;99739.94;10478623;28;20464;-70
2023/09/21 08:51:39;;;;;;;894.78;834.88;;;;;;;15.73;100.00;99735.69;10479947;28;20077;-70
2023/09/21 08:56:41;;;;;;;865.58;807.85;;;;;;;15.63;100.00;99746.47;10478738;28;20490;-69
2023/09/21 09:01:42;;;;;;;882.85;823.92;;;;;;;15.67;100.00;99758.56;10497437;28;20067;-70
2023/09/21 09:06:42;;;;;;;886.03;826.85;;;;;;;15.74;100.00;99766.53;10497114;28;20043;-70
2023/09/21 09:11:44;;;;;;;869.53;811.60;;;;;;;15.65;100.00;99781.72;10495257;28;20048;-71
2023/09/21 09:16:46;;;;;;;855.75;798.78;;;;;;;15.62;100.00;99796.69;10479101;28;20037;-71
2023/09/21 09:21:48;;;;;;;859.72;802.65;;;;;;;15.63;100.00;99802.97;10452512;28;20114;-70
2023/09/21 09:26:48;;;;;;;854.40;797.97;;;;;;;15.77;100.00;99796.88;10468595;28;20029;-69
2023/09/21 09:31:49;;;;;;;873.67;815.42;;;;;;;15.87;100.00;99804.31;10453961;28;20396;-70
2023/09/21 09:36:50;;;;;;;891.17;831.15;;;;;;;15.83;100.00;99829.69;10454296;28;20480;-70
2023/09/21 09:41:51;;;;;;;887.72;828.38;;;;;;;15.77;100.00;99829.63;10454568;28;20123;-71
2023/09/21 09:46:58;;;;;;;884.55;825.50;;;;;;;15.81;100.00;99824.47;10468491;28;20397;-70
2023/09/21 09:52:00;;;;;;;880.75;822.05;;;;;;;15.83;100.00;99810.56;10468881;28;20033;-70
2023/09/21 09:57:01;;;;;;;870.60;812.78;;;;;;;15.48;100.00;99803.66;10455228;28;20029;-70
2023/09/21 10:02:01;;;;;;;833.55;778.50;;;;;;;15.44;100.00;99816.94;10453802;28;20029;-70
2023/09/21 10:07:04;;;;;;;821.88;768.55;;;;;;;15.58;100.00;99817.38;10451154;28;20037;-70
2023/09/21 10:12:04;;;;;;;860.20;803.40;;;;;;;15.68;100.00;99819.44;10435063;28;20510;-70
2023/09/21 10:17:05;;;;;;;860.92;803.85;;;;;;;15.59;100.00;99808.94;10435871;28;20128;-71
2023/09/21 10:22:21;;;;;;;842.75;787.60;;;;;;;15.53;100.00;99801.78;10451003;28;20045;-70
2023/09/21 10:27:25;;;;;;;811.25;758.58;;;;;;;15.45;100.00;99790.53;10468178;28;20029;-71
2023/09/21 10:32:27;;;;;;;765.83;717.45;;;;;;;15.10;100.00;99776.22;10452096;28;20143;-71
2023/09/21 10:37:28;;;;;;;702.72;659.88;;;;;;;15.10;100.00;99778.94;10452807;28;20037;-72
2023/09/21 10:42:33;;;;;;;671.10;631.38;;;;;;;15.03;100.00;99778.31;10451337;28;20044;-71
2023/09/21 10:47:50;;;;;;;632.45;596.17;;;;;;;15.02;100.00;99775.84;10456932;28;20040;-70
2023/09/21 10:52:51;;;;;;;595.00;561.50;;;;;;;15.03;100.00;99778.31;10460205;28;20097;-70
2023/09/21 10:57:53;;;;;;;571.75;540.75;;;;;;;14.97;100.00;99767.63;10459721;28;20037;-70
2023/09/21 11:02:55;;;;;;;561.53;531.25;;;;;;;14.89;100.00;99752.50;10459524;28;20033;-71
2023/09/21 11:07:55;;;;;;;542.63;513.97;;;;;;;15.09;100.00;99738.28;10459716;28;20036;-69
2023/09/21 11:12:56;;;;;;;578.65;546.80;;;;;;;15.30;100.00;99750.25;10474624;28;20399;-71
2023/09/21 11:17:57;;;;;;;604.50;570.55;;;;;;;15.31;100.00;99744.53;10461585;28;20072;-71
2023/09/21 11:22:58;;;;;;;606.05;571.90;;;;;;;15.40;100.00;99730.44;10484222;28;20032;-70
2023/09/21 11:27:58;;;;;;;682.63;641.35;;;;;;;15.46;100.00;99718.50;10483363;28;20113;-70
2023/09/21 11:32:59;;;;;;;716.70;672.67;;;;;;;15.56;100.00;99715.84;10499463;28;20029;-71
2023/09/21 11:37:59;;;;;;;716.05;671.97;;;;;;;15.46;100.00;99700.22;10481735;28;20036;-71
2023/09/21 11:43:00;;;;;;;715.10;671.20;;;;;;;15.48;100.00;99703.53;10482504;28;20024;-70
2023/09/21 11:48:00;;;;;;;705.28;662.67;;;;;;;15.34;100.00;99684.00;10499618;28;20089;-70
2023/09/21 11:53:07;;;;;;;724.30;679.33;;;;;;;15.32;100.00;99686.19;10497672;28;20086;-70
2023/09/21 11:58:14;;;;;;;722.30;677.85;;;;;;;15.45;100.00;99687.66;10498950;28;20033;-71
2023/09/21 12:03:16;;;;;;;739.38;693.38;;;;;;;15.43;100.00;99684.34;10480472;28;20036;-70
2023/09/21 12:08:19;;;;;;;717.17;672.85;;;;;;;15.23;100.00;99692.38;10499030;28;20095;-70
2023/09/21 12:13:20;;;;;;;737.10;690.80;;;;;;;15.38;100.00;99665.25;10480667;28;20094;-71
2023/09/21 12:18:20;;;;;;;743.92;697.10;;;;;;;15.52;100.00;99685.53;10481091;28;20113;-70
2023/09/21 12:23:20;;;;;;;759.92;711.92;;;;;;;15.81;100.00;99677.06;10497568;28;20457;-70
2023/09/21 12:28:21;;;;;;;784.92;734.25;;;;;;;16.16;100.00;99651.06;10479319;28;20036;-70
2023/09/21 12:33:22;;;;;;;813.97;761.00;;;;;;;16.01;100.00;99679.91;10497641;28;20044;-70
2023/09/21 12:38:22;;;;;;;826.80;772.92;;;;;;;15.94;100.00;99683.97;10498025;28;20479;-69
2023/09/21 12:43:23;;;;;;;826.95;772.95;;;;;;;15.74;100.00;99690.94;10496860;28;20112;-69
2023/09/21 12:48:24;;;;;;;808.95;756.10;;;;;;;15.79;100.00;99687.41;10497706;28;20090;-70
2023/09/21 12:53:25;;;;;;;827.92;774.28;;;;;;;15.96;100.00;99699.03;10496906;28;20028;-69
2023/09/21 12:58:25;;;;;;;800.08;748.13;;;;;;;15.90;100.00;99691.06;10478637;28;20487;-70
2023/09/21 13:03:25;;;;;;;825.03;771.20;;;;;;;15.91;100.00;99685.31;10496529;28;20032;-70
2023/09/21 13:08:26;;;;;;;806.15;753.70;;;;;;;16.00;100.00;99683.75;10496288;28;20044;-69
2023/09/21 13:13:26;;;;;;;835.15;780.55;;;;;;;15.90;100.00;99682.88;10497307;28;20460;-69
2023/09/21 13:18:27;;;;;;;820.05;766.63;;;;;;;15.88;100.00;99683.09;10496147;28;20147;-71
2023/09/21 13:23:27;;;;;;;822.10;768.38;;;;;;;15.84;100.00;99662.88;10497516;28;20081;-71
2023/09/21 13:28:28;;;;;;;832.80;778.33;;;;;;;16.01;100.00;99693.56;10496341;28;20123;-70
2023/09/21 13:33:28;;;;;;;812.67;759.67;;;;;;;15.91;100.00;99693.50;10496482;28;20068;-70
2023/09/21 13:38:29;;;;;;;812.17;759.13;;;;;;;15.84;100.00;99692.91;10496077;28;20074;-70
2023/09/21 13:43:30;;;;;;;838.42;783.08;;;;;;;15.75;100.00;99676.19;10494383;28;20035;-70
2023/09/21 13:48:33;;;;;;;814.00;761.17;;;;;;;15.82;100.00;99670.50;10496266;28;20032;-69
2023/09/21 13:53:35;;;;;;;800.15;748.40;;;;;;;15.91;100.00;99658.03;10494137;28;20032;-70
2023/09/21 13:58:35;;;;;;;861.38;803.85;;;;;;;15.89;100.00;99616.53;10495021;28;20089;-69
2023/09/21 14:03:38;;;;;;;856.10;799.83;;;;;;;15.80;100.00;99610.72;10495826;28;20081;-70
2023/09/21 14:08:38;;;;;;;858.95;801.85;;;;;;;15.80;100.00;99618.09;10479667;28;20041;-71
2023/09/21 14:13:40;;;;;;;841.20;785.80;;;;;;;15.72;100.00;99619.41;10478798;28;20040;-70
2023/09/21 14:18:41;;;;;;;855.03;798.60;;;;;;;15.71;100.00;99595.94;10495894;28;20136;-70
2023/09/21 14:23:42;;;;;;;863.90;806.38;;;;;;;15.69;100.00;99591.81;10504984;28;20044;-70
2023/09/21 14:28:43;;;;;;;862.17;804.85;;;;;;;15.76;100.00;99614.22;10502341;28;20040;-71
2023/09/21 14:33:43;;;;;;;866.65;808.88;;;;;;;15.79;100.00;99614.56;10485033;28;20029;-71
2023/09/21 14:38:43;;;;;;;858.67;801.95;;;;;;;15.65;100.00;99621.50;10502238;28;20033;-70
2023/09/21 14:43:44;;;;;;;868.78;811.15;;;;;;;15.68;100.00;99633.84;10502622;28;20075;-70
2023/09/21 14:48:44;;;;;;;845.28;789.70;;;;;;;15.76;100.00;99622.41;10500857;28;20037;-69
2023/09/21 14:53:45;;;;;;;868.60;810.42;;;;;;;15.77;100.00;99630.38;10484490;28;20048;-69
2023/09/21 14:58:45;;;;;;;860.78;803.38;;;;;;;15.82;100.00;99621.38;10503209;28;20051;-71
2023/09/21 15:03:46;;;;;;;858.90;801.47;;;;;;;15.74;100.00;99624.63;10501922;28;20051;-70
2023/09/21 15:08:46;;;;;;;882.92;823.65;;;;;;;15.81;100.00;99630.66;10501810;28;20442;-70
2023/09/21 15:13:46;;;;;;;855.17;798.20;;;;;;;15.70;100.00;99628.97;10501343;28;20431;-71
2023/09/21 15:18:47;;;;;;;857.35;800.53;;;;;;;15.64;100.00;99616.34;10501711;28;20064;-69
2023/09/21 15:23:47;;;;;;;874.00;815.83;;;;;;;15.58;100.00;99610.81;10500289;28;20028;-70
2023/09/21 15:28:48;;;;;;;837.15;782.05;;;;;;;15.57;100.00;99598.28;10499335;28;20449;-70
2023/09/21 15:33:48;;;;;;;859.28;802.53;;;;;;;15.52;100.00;99572.84;10482227;28;20055;-69
2023/09/21 15:38:48;;;;;;;849.05;793.17;;;;;;;15.51;100.00;99561.13;10500787;28;20119;-69
2023/09/21 15:43:49;;;;;;;865.00;806.92;;;;;;;15.50;100.00;99567.66;10499664;28;20028;-71
2023/09/21 15:48:50;;;;;;;871.42;813.55;;;;;;;15.54;100.00;99546.13;10500450;28;20500;-69
2023/09/21 15:53:50;;;;;;;865.50;808.08;;;;;;;15.50;100.00;99542.28;10500450;28;20086;-69
2023/09/21 15:58:50;;;;;;;875.45;817.15;;;;;;;15.47;100.00;99545.53;10499034;28;20122;-72
2023/09/21 16:03:51;;;;;;;876.75;818.35;;;;;;;15.39;100.00;99555.03;10481532;28;20063;-70
2023/09/21 16:08:51;;;;;;;871.25;813.70;;;;;;;15.36;100.00;99569.19;10499032;28;20044;-69
2023/09/21 16:13:52;;;;;;;870.13;812.17;;;;;;;15.33;100.00;99558.81;10498526;28;20169;-70
2023/09/21 16:18:52;;;;;;;872.17;814.40;;;;;;;15.32;100.00;99562.63;10497143;28;20067;-70
2023/09/21 16:23:52;;;;;;;860.80;803.83;;;;;;;15.37;100.00;99565.38;10497055;28;20028;-70
2023/09/21 16:28:53;;;;;;;890.08;830.33;;;;;;;15.39;100.00;99576.84;10499616;28;20438;-71
2023/09/21 16:33:53;;;;;;;865.65;808.17;;;;;;;15.41;100.00;99569.25;10497575;28;20052;-70
2023/09/21 16:38:54;;;;;;;871.55;813.30;;;;;;;15.41;100.00;99566.53;10480748;28;20036;-70
2023/09/21 16:43:54;;;;;;;867.60;810.00;;;;;;;15.39;100.00;99568.69;10478417;28;20474;-69
2023/09/21 16:48:56;;;;;;;877.42;819.17;;;;;;;15.31;100.00;99542.69;10496356;28;20388;-69
2023/09/21 16:53:58;;;;;;;879.08;820.08;;;;;;;15.28;100.00;99526.88;10497466;28;20097;-69
2023/09/21 16:58:58;;;;;;;871.33;813.90;;;;;;;15.25;100.00;99530.13;10496457;28;20037;-70
2023/09/21 17:03:58;;;;;;;897.45;836.97;;;;;;;15.24;100.00;99549.47;10496504;28;20032;-69
2023/09/21 17:08:59;;;;;;;903.45;842.88;;;;;;;15.29;100.00;99552.25;10498798;28;20051;-70
2023/09/21 17:14:00;;;;;;;885.22;825.58;;;;;;;15.33;100.00;99547.91;10496133;28;20028;-70
2023/09/21 17:19:03;;;;;;;877.38;818.13;;;;;;;15.30;100.00;99567.50;10478725;28;20057;-70
2023/09/21 17:24:04;;;;;;;893.83;833.70;;;;;;;15.23;100.00;99570.47;10497616;28;20036;-69
2023/09/21 17:29:04;;;;;;;901.85;841.08;;;;;;;15.21;100.00;99566.34;10495635;28;20081;-70
2023/09/21 17:34:04;;;;;;;880.95;822.03;;;;;;;15.16;100.00;99558.97;10495943;28;20052;-70
2023/09/21 17:39:05;;;;;;;884.65;825.45;;;;;;;15.07;100.00;99555.88;10477002;28;20131;-69
2023/09/21 17:44:05;;;;;;;866.67;808.60;;;;;;;15.06;100.00;99546.06;10479016;28;20027;-69
2023/09/21 17:49:06;;;;;;;871.00;812.95;;;;;;;15.06;100.00;99554.25;10477933;28;20071;-70
2023/09/21 17:54:06;;;;;;;875.25;816.85;;;;;;;15.02;100.00;99544.91;10494460;28;20142;-70
2023/09/21 17:59:07;;;;;;;879.33;820.83;;;;;;;15.05;100.00;99536.22;10474966;28;20118;-70
2023/09/21 18:04:07;;;;;;;878.55;820.15;;;;;;;15.08;100.00;99535.69;10474543;28;20372;-71
2023/09/21 18:09:08;;;;;;;852.58;796.20;;;;;;;15.13;100.00;99528.66;10510316;28;20036;-70
2023/09/21 18:14:08;;;;;;;879.17;820.53;;;;;;;15.06;100.00;99534.31;10510580;28;20036;-69
2023/09/21 18:19:08;;;;;;;875.83;817.40;;;;;;;15.08;100.00;99551.25;10491967;28;20076;-70
2023/09/21 18:24:09;;;;;;;889.33;829.80;;;;;;;15.02;100.00;99564.00;10511832;28;20032;-71
2023/09/21 18:29:10;;;;;;;890.53;831.28;;;;;;;15.01;100.00;99554.19;10511324;28;20371;-71
2023/09/21 18:34:11;;;;;;;892.17;832.45;;;;;;;14.97;100.00;99560.44;10508087;28;20033;-71
2023/09/21 18:39:12;;;;;;;878.03;819.35;;;;;;;15.00;100.00;99573.56;10490626;28;20037;-71
2023/09/21 18:44:13;;;;;;;893.08;833.28;;;;;;;14.98;100.00;99587.41;10508190;28;20092;-71
2023/09/21 18:49:13;;;;;;;904.22;843.05;;;;;;;15.06;100.00;99594.28;10508411;28;20115;-71
2023/09/21 18:54:14;;;;;;;887.33;827.65;;;;;;;14.95;100.00;99582.50;10508653;28;20028;-73
2023/09/21 18:59:14;;;;;;;898.47;837.67;;;;;;;14.93;100.00;99592.00;10509062;28;20036;-73
2023/09/21 19:04:15;;;;;;;898.63;838.42;;;;;;;15.04;100.00;99599.19;10508334;28;20060;-72
2023/09/21 19:09:15;;;;;;;899.10;838.63;;;;;;;14.98;100.00;99589.31;10502431;28;20036;-71
2023/09/21 19:14:17;;;;;;;895.03;834.80;;;;;;;14.87;100.00;99597.41;10501314;28;20036;-72
2023/09/21 19:19:17;;;;;;;894.28;834.40;;;;;;;14.75;100.00;99609.56;10500702;28;20040;-71
2023/09/21 19:24:17;;;;;;;873.53;815.35;;;;;;;14.45;100.00;99626.34;10501574;28;20028;-71
2023/09/21 19:29:18;;;;;;;864.85;807.45;;;;;;;14.24;100.00;99628.81;10500447;28;20093;-70
2023/09/21 19:34:18;;;;;;;835.60;781.42;;;;;;;14.10;100.00;99620.19;10498923;28;20055;-71
2023/09/21 19:39:20;;;;;;;807.20;755.67;;;;;;;14.08;100.00;99629.69;10500376;28;20081;-71
2023/09/21 19:44:21;;;;;;;780.60;730.75;;;;;;;14.01;100.00;99629.03;10485599;28;20029;-71
2023/09/21 19:49:23;;;;;;;742.58;695.90;;;;;;;13.99;100.00;99628.47;10499429;28;20448;-72
2023/09/21 19:54:23;;;;;;;735.97;691.13;;;;;;;13.98;100.00;99633.09;10497963;28;20313;-73
2023/09/21 19:59:25;;;;;;;745.72;699.13;;;;;;;13.99;100.00;99637.47;10498350;28;20039;-71
2023/09/21 20:04:26;;;;;;;747.00;700.38;;;;;;;13.98;100.00;99635.81;10498766;28;20372;-72
2023/09/21 20:09:26;;;;;;;735.13;689.65;;;;;;;14.02;100.00;99644.31;10499223;28;20037;-70
2023/09/21 20:14:27;;;;;;;745.00;698.28;;;;;;;14.04;100.00;99644.84;10500018;28;20372;-72
2023/09/21 20:19:27;;;;;;;738.10;692.55;;;;;;;14.07;100.00;99653.38;10498625;28;20420;-70
2023/09/21 20:24:27;;;;;;;733.40;688.28;;;;;;;14.11;100.00;99662.69;10499413;28;20069;-71
2023/09/21 20:29:28;;;;;;;738.45;692.45;;;;;;;14.10;100.00;99666.47;10496941;28;20486;-70
2023/09/21 20:34:29;;;;;;;741.85;695.88;;;;;;;14.13;100.00;99676.03;10498207;28;20024;-71
2023/09/21 20:39:29;;;;;;;763.58;715.33;;;;;;;14.20;100.00;99693.03;10498356;28;20044;-70
2023/09/21 20:44:30;;;;;;;757.42;709.63;;;;;;;14.12;100.00;99679.81;10497489;28;20028;-69
2023/09/21 20:49:30;;;;;;;762.65;714.75;;;;;;;13.93;100.00;99690.97;10500816;28;20041;-71
2023/09/21 20:54:30;;;;;;;755.85;708.13;;;;;;;13.81;100.00;99690.25;10480907;28;20533;-73
2023/09/21 20:59:31;;;;;;;722.88;678.58;;;;;;;13.78;100.00;99688.03;10495471;28;20093;-70
2023/09/21 21:04:31;;;;;;;730.60;685.55;;;;;;;13.79;100.00;99691.59;10497462;28;20087;-72
2023/09/21 21:09:32;;;;;;;685.90;644.80;;;;;;;13.74;100.00;99684.16;10498698;28;20460;-73
2023/09/21 21:14:32;;;;;;;653.95;616.05;;;;;;;13.70;100.00;99694.72;10480928;28;20032;-70
2023/09/21 21:19:32;;;;;;;669.45;629.88;;;;;;;13.62;100.00;99714.16;10496022;28;20040;-71
2023/09/21 21:24:33;;;;;;;675.58;634.00;;;;;;;13.47;100.00;99703.03;10496124;28;20078;-71
2023/09/21 21:29:33;;;;;;;598.60;564.78;;;;;;;13.33;100.00;99713.38;10478346;28;20440;-71
2023/09/21 21:34:34;;;;;;;611.67;577.95;;;;;;;13.22;100.00;99720.50;10496372;28;20059;-71
2023/09/21 21:39:35;;;;;;;608.78;574.80;;;;;;;13.32;100.00;99721.81;10496282;28;20028;-71
2023/09/21 21:44:36;;;;;;;559.63;529.47;;;;;;;13.30;100.00;99724.75;10495580;28;20108;-71
2023/09/21 21:49:36;;;;;;;593.45;560.67;;;;;;;13.20;100.00;99732.69;10495521;28;20472;-71
2023/09/21 21:54:36;;;;;;;602.85;569.35;;;;;;;13.08;100.00;99745.50;10495752;28;20037;-72
2023/09/21 21:59:37;;;;;;;562.95;533.08;;;;;;;13.02;100.00;99745.41;10477921;28;20406;-71
2023/09/21 22:04:39;;;;;;;562.05;532.22;;;;;;;12.96;100.00;99740.13;10494337;28;20028;-70